sensor_id;sensor_type;location;lat;lon;timestamp;temperature;humidity
47576;DHT22;33304;52.456;13.328;2022-08-03T00:01:06;20.90;12.70
47576;DHT22;33304;52.456;13.328;2022-08-03T00:03:33;20.90;12.70
47576;DHT22;33304;52.456;13.328;2022-08-03T00:06:00;20.90;12.80
47576;DHT22;33304;52.456;13.328;2022-08-03T00:08:28;20.80;12.90
47576;DHT22;33304;52.456;13.328;2022-08-03T00:10:55;20.80;13.00
47576;DHT22;33304;52.456;13.328;2022-08-03T00:13:24;20.80;13.00
47576;DHT22;33304;52.456;13.328;2022-08-03T00:15:51;20.80;12.90
47576;DHT22;33304;52.456;13.328;2022-08-03T00:18:19;20.80;13.10
47576;DHT22;33304;52.456;13.328;2022-08-03T00:20:46;20.70;13.20
47576;DHT22;33304;52.456;13.328;2022-08-03T00:23:14;20.80;13.20
47576;DHT22;33304;52.456;13.328;2022-08-03T00:25:41;20.70;13.30
47576;DHT22;33304;52.456;13.328;2022-08-03T00:28:09;20.70;13.60
47576;DHT22;33304;52.456;13.328;2022-08-03T00:30:37;20.70;13.60
47576;DHT22;33304;52.456;13.328;2022-08-03T00:33:04;20.70;13.70
47576;DHT22;33304;52.456;13.328;2022-08-03T00:35:31;20.70;13.70
47576;DHT22;33304;52.456;13.328;2022-08-03T00:38:00;20.70;14.00
47576;DHT22;33304;52.456;13.328;2022-08-03T00:40:28;20.60;13.90
47576;DHT22;33304;52.456;13.328;2022-08-03T00:42:56;20.60;14.50
47576;DHT22;33304;52.456;13.328;2022-08-03T00:45:25;20.70;14.20
47576;DHT22;33304;52.456;13.328;2022-08-03T00:47:54;20.60;14.20
47576;DHT22;33304;52.456;13.328;2022-08-03T00:50:23;20.60;14.50
47576;DHT22;33304;52.456;13.328;2022-08-03T00:52:52;20.50;14.60
47576;DHT22;33304;52.456;13.328;2022-08-03T00:55:19;20.50;14.30
47576;DHT22;33304;52.456;13.328;2022-08-03T00:57:47;20.50;14.80
47576;DHT22;33304;52.456;13.328;2022-08-03T01:00:17;20.60;14.40
47576;DHT22;33304;52.456;13.328;2022-08-03T01:02:45;20.60;14.10
47576;DHT22;33304;52.456;13.328;2022-08-03T01:05:14;20.80;13.50
47576;DHT22;33304;52.456;13.328;2022-08-03T01:08:03;20.80;13.40
47576;DHT22;33304;52.456;13.328;2022-08-03T01:10:38;20.70;13.60
47576;DHT22;33304;52.456;13.328;2022-08-03T01:13:15;20.70;13.80
47576;DHT22;33304;52.456;13.328;2022-08-03T01:15:49;20.60;13.80
47576;DHT22;33304;52.456;13.328;2022-08-03T01:18:25;20.60;13.70
47576;DHT22;33304;52.456;13.328;2022-08-03T01:20:57;20.50;13.60
47576;DHT22;33304;52.456;13.328;2022-08-03T01:23:36;20.50;14.00
47576;DHT22;33304;52.456;13.328;2022-08-03T01:26:22;20.60;13.80
47576;DHT22;33304;52.456;13.328;2022-08-03T01:29:03;20.50;14.00
47576;DHT22;33304;52.456;13.328;2022-08-03T01:31:40;20.40;14.30
47576;DHT22;33304;52.456;13.328;2022-08-03T01:34:11;20.50;14.40
47576;DHT22;33304;52.456;13.328;2022-08-03T01:36:45;20.40;14.40
47576;DHT22;33304;52.456;13.328;2022-08-03T01:39:15;20.30;14.70
47576;DHT22;33304;52.456;13.328;2022-08-03T01:41:47;20.20;14.80
47576;DHT22;33304;52.456;13.328;2022-08-03T01:44:15;20.20;15.10
47576;DHT22;33304;52.456;13.328;2022-08-03T01:46:45;20.30;15.40
47576;DHT22;33304;52.456;13.328;2022-08-03T01:49:15;20.30;15.20
47576;DHT22;33304;52.456;13.328;2022-08-03T01:51:44;20.20;15.40
47576;DHT22;33304;52.456;13.328;2022-08-03T01:54:12;20.20;15.40
47576;DHT22;33304;52.456;13.328;2022-08-03T01:56:41;20.30;15.50
47576;DHT22;33304;52.456;13.328;2022-08-03T01:59:10;20.30;15.20
47576;DHT22;33304;52.456;13.328;2022-08-03T02:01:40;20.30;15.00
47576;DHT22;33304;52.456;13.328;2022-08-03T02:04:12;20.30;15.30
47576;DHT22;33304;52.456;13.328;2022-08-03T02:06:41;20.30;15.40
47576;DHT22;33304;52.456;13.328;2022-08-03T02:09:10;20.30;14.80
47576;DHT22;33304;52.456;13.328;2022-08-03T02:11:39;20.30;15.20
47576;DHT22;33304;52.456;13.328;2022-08-03T02:14:07;20.40;14.70
47576;DHT22;33304;52.456;13.328;2022-08-03T02:16:36;20.50;15.10
47576;DHT22;33304;52.456;13.328;2022-08-03T02:19:05;20.50;14.00
47576;DHT22;33304;52.456;13.328;2022-08-03T02:21:35;20.50;14.10
47576;DHT22;33304;52.456;13.328;2022-08-03T02:24:04;20.40;13.80
47576;DHT22;33304;52.456;13.328;2022-08-03T02:26:31;20.40;13.80
47576;DHT22;33304;52.456;13.328;2022-08-03T02:29:10;20.40;13.60
47576;DHT22;33304;52.456;13.328;2022-08-03T02:31:41;20.50;13.90
47576;DHT22;33304;52.456;13.328;2022-08-03T02:34:12;20.60;13.40
47576;DHT22;33304;52.456;13.328;2022-08-03T02:36:43;20.70;13.40
47576;DHT22;33304;52.456;13.328;2022-08-03T02:39:16;20.50;13.20
47576;DHT22;33304;52.456;13.328;2022-08-03T02:41:51;20.50;13.60
47576;DHT22;33304;52.456;13.328;2022-08-03T02:44:22;20.50;13.40
47576;DHT22;33304;52.456;13.328;2022-08-03T02:46:54;20.50;13.10
47576;DHT22;33304;52.456;13.328;2022-08-03T02:49:22;20.50;12.80
47576;DHT22;33304;52.456;13.328;2022-08-03T02:51:54;20.40;12.90
47576;DHT22;33304;52.456;13.328;2022-08-03T02:54:23;20.40;13.00
47576;DHT22;33304;52.456;13.328;2022-08-03T02:56:53;20.30;12.80
47576;DHT22;33304;52.456;13.328;2022-08-03T02:59:21;20.50;12.80
47576;DHT22;33304;52.456;13.328;2022-08-03T03:01:49;20.40;13.00
47576;DHT22;33304;52.456;13.328;2022-08-03T03:04:18;20.30;12.90
47576;DHT22;33304;52.456;13.328;2022-08-03T03:06:47;20.30;13.30
47576;DHT22;33304;52.456;13.328;2022-08-03T03:09:16;20.20;13.20
47576;DHT22;33304;52.456;13.328;2022-08-03T03:11:45;20.20;14.00
47576;DHT22;33304;52.456;13.328;2022-08-03T03:14:13;20.20;13.80
47576;DHT22;33304;52.456;13.328;2022-08-03T03:16:42;20.10;13.80
47576;DHT22;33304;52.456;13.328;2022-08-03T03:19:11;20.20;14.30
47576;DHT22;33304;52.456;13.328;2022-08-03T03:21:39;20.10;14.20
47576;DHT22;33304;52.456;13.328;2022-08-03T03:24:08;20.10;14.00
47576;DHT22;33304;52.456;13.328;2022-08-03T03:26:37;20.10;14.20
47576;DHT22;33304;52.456;13.328;2022-08-03T03:29:06;20.10;14.10
47576;DHT22;33304;52.456;13.328;2022-08-03T03:31:34;20.10;14.40
47576;DHT22;33304;52.456;13.328;2022-08-03T03:34:01;20.00;14.60
47576;DHT22;33304;52.456;13.328;2022-08-03T03:36:29;20.00;14.40
47576;DHT22;33304;52.456;13.328;2022-08-03T03:38:56;20.10;14.50
47576;DHT22;33304;52.456;13.328;2022-08-03T03:41:23;20.00;14.50
47576;DHT22;33304;52.456;13.328;2022-08-03T03:43:51;20.00;14.70
47576;DHT22;33304;52.456;13.328;2022-08-03T03:46:19;20.10;15.00
47576;DHT22;33304;52.456;13.328;2022-08-03T03:48:47;20.10;14.90
47576;DHT22;33304;52.456;13.328;2022-08-03T03:51:14;20.00;15.00
47576;DHT22;33304;52.456;13.328;2022-08-03T03:53:53;19.90;15.00
47576;DHT22;33304;52.456;13.328;2022-08-03T03:56:20;20.00;15.00
47576;DHT22;33304;52.456;13.328;2022-08-03T03:58:47;19.90;15.00
47576;DHT22;33304;52.456;13.328;2022-08-03T04:01:16;20.00;14.80
47576;DHT22;33304;52.456;13.328;2022-08-03T04:03:43;19.80;15.10
47576;DHT22;33304;52.456;13.328;2022-08-03T04:06:11;19.70;15.30
47576;DHT22;33304;52.456;13.328;2022-08-03T04:08:57;19.80;15.50
47576;DHT22;33304;52.456;13.328;2022-08-03T04:11:46;19.70;15.30
47576;DHT22;33304;52.456;13.328;2022-08-03T04:14:18;19.80;15.40
47576;DHT22;33304;52.456;13.328;2022-08-03T04:16:49;19.80;15.20
47576;DHT22;33304;52.456;13.328;2022-08-03T04:19:21;19.80;15.20
47576;DHT22;33304;52.456;13.328;2022-08-03T04:21:53;19.80;14.90
47576;DHT22;33304;52.456;13.328;2022-08-03T04:24:23;20.00;14.80
47576;DHT22;33304;52.456;13.328;2022-08-03T04:26:52;20.00;14.50
47576;DHT22;33304;52.456;13.328;2022-08-03T04:29:19;20.00;14.30
47576;DHT22;33304;52.456;13.328;2022-08-03T04:31:50;20.00;14.40
47576;DHT22;33304;52.456;13.328;2022-08-03T04:34:20;20.00;14.30
47576;DHT22;33304;52.456;13.328;2022-08-03T04:36:48;20.00;14.20
47576;DHT22;33304;52.456;13.328;2022-08-03T04:39:22;20.10;14.50
47576;DHT22;33304;52.456;13.328;2022-08-03T04:41:52;20.00;14.40
47576;DHT22;33304;52.456;13.328;2022-08-03T04:44:21;20.00;14.70
47576;DHT22;33304;52.456;13.328;2022-08-03T04:46:50;20.00;14.70
47576;DHT22;33304;52.456;13.328;2022-08-03T04:49:19;20.10;14.90
47576;DHT22;33304;52.456;13.328;2022-08-03T04:51:48;20.20;14.80
47576;DHT22;33304;52.456;13.328;2022-08-03T04:54:15;20.20;14.60
47576;DHT22;33304;52.456;13.328;2022-08-03T04:56:43;20.30;14.50
47576;DHT22;33304;52.456;13.328;2022-08-03T04:59:10;20.40;14.10
47576;DHT22;33304;52.456;13.328;2022-08-03T05:01:39;20.50;14.30
47576;DHT22;33304;52.456;13.328;2022-08-03T05:04:08;20.60;13.90
47576;DHT22;33304;52.456;13.328;2022-08-03T05:06:35;20.60;13.60
47576;DHT22;33304;52.456;13.328;2022-08-03T05:09:03;20.50;13.60
47576;DHT22;33304;52.456;13.328;2022-08-03T05:11:30;20.60;13.70
47576;DHT22;33304;52.456;13.328;2022-08-03T05:13:57;20.80;13.00
47576;DHT22;33304;52.456;13.328;2022-08-03T05:16:25;21.00;13.10
47576;DHT22;33304;52.456;13.328;2022-08-03T05:18:52;21.00;12.60
47576;DHT22;33304;52.456;13.328;2022-08-03T05:21:20;21.10;12.70
47576;DHT22;33304;52.456;13.328;2022-08-03T05:23:47;21.10;12.00
47576;DHT22;33304;52.456;13.328;2022-08-03T05:26:15;21.20;11.90
47576;DHT22;33304;52.456;13.328;2022-08-03T05:28:42;21.10;11.40
47576;DHT22;33304;52.456;13.328;2022-08-03T05:31:09;21.20;11.30
47576;DHT22;33304;52.456;13.328;2022-08-03T05:33:38;21.30;11.20
47576;DHT22;33304;52.456;13.328;2022-08-03T05:36:05;21.40;10.30
47576;DHT22;33304;52.456;13.328;2022-08-03T05:38:34;21.50;10.40
47576;DHT22;33304;52.456;13.328;2022-08-03T05:41:02;21.60;10.50
47576;DHT22;33304;52.456;13.328;2022-08-03T05:43:29;21.80;10.60
47576;DHT22;33304;52.456;13.328;2022-08-03T05:45:57;21.80;9.60
47576;DHT22;33304;52.456;13.328;2022-08-03T05:48:25;21.90;9.40
47576;DHT22;33304;52.456;13.328;2022-08-03T05:50:53;22.00;9.40
47576;DHT22;33304;52.456;13.328;2022-08-03T05:53:20;22.20;9.00
47576;DHT22;33304;52.456;13.328;2022-08-03T05:55:49;22.30;8.50
47576;DHT22;33304;52.456;13.328;2022-08-03T05:58:16;22.40;8.00
47576;DHT22;33304;52.456;13.328;2022-08-03T06:00:43;22.50;8.30
47576;DHT22;33304;52.456;13.328;2022-08-03T06:03:10;22.60;7.20
47576;DHT22;33304;52.456;13.328;2022-08-03T06:05:38;22.70;6.80
47576;DHT22;33304;52.456;13.328;2022-08-03T06:08:05;22.70;6.60
47576;DHT22;33304;52.456;13.328;2022-08-03T06:10:32;22.80;6.60
47576;DHT22;33304;52.456;13.328;2022-08-03T06:13:01;22.80;7.00
47576;DHT22;33304;52.456;13.328;2022-08-03T06:15:28;23.00;7.20
47576;DHT22;33304;52.456;13.328;2022-08-03T06:17:55;23.20;7.30
47576;DHT22;33304;52.456;13.328;2022-08-03T06:20:23;23.20;6.00
47576;DHT22;33304;52.456;13.328;2022-08-03T06:22:51;23.30;6.60
47576;DHT22;33304;52.456;13.328;2022-08-03T06:25:18;23.50;5.90
47576;DHT22;33304;52.456;13.328;2022-08-03T06:27:45;23.70;6.20
47576;DHT22;33304;52.456;13.328;2022-08-03T06:30:14;23.90;5.40
47576;DHT22;33304;52.456;13.328;2022-08-03T06:32:42;24.00;5.20
47576;DHT22;33304;52.456;13.328;2022-08-03T06:35:09;24.20;5.10
47576;DHT22;33304;52.456;13.328;2022-08-03T06:37:43;24.30;4.50
47576;DHT22;33304;52.456;13.328;2022-08-03T06:40:11;24.30;4.00
47576;DHT22;33304;52.456;13.328;2022-08-03T06:42:40;24.30;4.00
47576;DHT22;33304;52.456;13.328;2022-08-03T06:45:07;24.40;3.90
47576;DHT22;33304;52.456;13.328;2022-08-03T06:47:37;24.60;3.70
47576;DHT22;33304;52.456;13.328;2022-08-03T06:50:06;24.70;2.20
47576;DHT22;33304;52.456;13.328;2022-08-03T06:52:34;24.80;2.30
47576;DHT22;33304;52.456;13.328;2022-08-03T06:55:01;24.70;2.80
47576;DHT22;33304;52.456;13.328;2022-08-03T06:57:28;24.90;2.40
47576;DHT22;33304;52.456;13.328;2022-08-03T06:59:55;25.10;2.50
47576;DHT22;33304;52.456;13.328;2022-08-03T07:02:26;25.30;2.30
47576;DHT22;33304;52.456;13.328;2022-08-03T07:04:55;25.40;1.80
47576;DHT22;33304;52.456;13.328;2022-08-03T07:07:23;25.50;1.40
47576;DHT22;33304;52.456;13.328;2022-08-03T07:09:50;25.60;1.70
47576;DHT22;33304;52.456;13.328;2022-08-03T07:12:17;25.80;1.00
47576;DHT22;33304;52.456;13.328;2022-08-03T07:14:44;25.90;1.40
47576;DHT22;33304;52.456;13.328;2022-08-03T07:17:11;26.00;1.00
47576;DHT22;33304;52.456;13.328;2022-08-03T07:19:39;26.10;1.00
47576;DHT22;33304;52.456;13.328;2022-08-03T07:22:07;26.10;1.00
47576;DHT22;33304;52.456;13.328;2022-08-03T07:24:34;26.30;1.00
47576;DHT22;33304;52.456;13.328;2022-08-03T07:27:01;26.40;1.00
47576;DHT22;33304;52.456;13.328;2022-08-03T07:29:28;26.50;1.00
47576;DHT22;33304;52.456;13.328;2022-08-03T07:31:56;26.60;1.00
47576;DHT22;33304;52.456;13.328;2022-08-03T07:34:23;26.50;1.00
47576;DHT22;33304;52.456;13.328;2022-08-03T07:36:50;26.60;1.00
47576;DHT22;33304;52.456;13.328;2022-08-03T07:39:18;26.60;1.00
47576;DHT22;33304;52.456;13.328;2022-08-03T07:41:45;26.70;1.00
47576;DHT22;33304;52.456;13.328;2022-08-03T07:44:15;26.70;1.00
47576;DHT22;33304;52.456;13.328;2022-08-03T07:46:42;26.60;1.00
47576;DHT22;33304;52.456;13.328;2022-08-03T07:49:09;26.70;1.00
47576;DHT22;33304;52.456;13.328;2022-08-03T07:51:37;26.90;1.00
47576;DHT22;33304;52.456;13.328;2022-08-03T07:54:04;26.90;1.00
47576;DHT22;33304;52.456;13.328;2022-08-03T07:56:33;26.90;1.00
47576;DHT22;33304;52.456;13.328;2022-08-03T07:59:01;27.10;1.00
47576;DHT22;33304;52.456;13.328;2022-08-03T08:01:28;27.30;1.00
47576;DHT22;33304;52.456;13.328;2022-08-03T08:03:57;27.30;1.00
47576;DHT22;33304;52.456;13.328;2022-08-03T08:06:24;27.40;1.00
47576;DHT22;33304;52.456;13.328;2022-08-03T08:08:52;27.40;1.00
47576;DHT22;33304;52.456;13.328;2022-08-03T08:11:20;27.50;1.00
47576;DHT22;33304;52.456;13.328;2022-08-03T08:13:49;27.70;1.00
47576;DHT22;33304;52.456;13.328;2022-08-03T08:16:16;27.80;1.00
47576;DHT22;33304;52.456;13.328;2022-08-03T08:18:45;27.70;1.00
47576;DHT22;33304;52.456;13.328;2022-08-03T08:21:13;27.80;1.00
47576;DHT22;33304;52.456;13.328;2022-08-03T08:23:40;27.80;1.00
47576;DHT22;33304;52.456;13.328;2022-08-03T08:26:08;27.90;1.00
47576;DHT22;33304;52.456;13.328;2022-08-03T08:28:35;28.00;1.00
47576;DHT22;33304;52.456;13.328;2022-08-03T08:31:04;28.20;1.00
47576;DHT22;33304;52.456;13.328;2022-08-03T08:33:31;28.30;1.00
47576;DHT22;33304;52.456;13.328;2022-08-03T08:35:59;28.30;1.00
47576;DHT22;33304;52.456;13.328;2022-08-03T08:38:26;28.50;1.00
47576;DHT22;33304;52.456;13.328;2022-08-03T08:40:54;28.50;1.00
47576;DHT22;33304;52.456;13.328;2022-08-03T08:43:21;28.70;1.00
47576;DHT22;33304;52.456;13.328;2022-08-03T08:45:49;28.70;1.00
47576;DHT22;33304;52.456;13.328;2022-08-03T08:48:22;28.80;1.00
47576;DHT22;33304;52.456;13.328;2022-08-03T08:50:52;29.00;1.00
47576;DHT22;33304;52.456;13.328;2022-08-03T08:53:20;29.10;1.00
47576;DHT22;33304;52.456;13.328;2022-08-03T08:55:49;29.10;1.00
47576;DHT22;33304;52.456;13.328;2022-08-03T08:58:18;29.10;1.00
47576;DHT22;33304;52.456;13.328;2022-08-03T09:00:47;29.10;1.00
47576;DHT22;33304;52.456;13.328;2022-08-03T09:03:15;29.00;1.00
47576;DHT22;33304;52.456;13.328;2022-08-03T09:05:44;29.20;1.00
47576;DHT22;33304;52.456;13.328;2022-08-03T09:08:12;29.40;1.00
47576;DHT22;33304;52.456;13.328;2022-08-03T09:10:39;29.40;1.00
47576;DHT22;33304;52.456;13.328;2022-08-03T09:13:07;29.50;1.00
47576;DHT22;33304;52.456;13.328;2022-08-03T09:15:34;29.50;1.00
47576;DHT22;33304;52.456;13.328;2022-08-03T09:18:03;29.70;1.00
47576;DHT22;33304;52.456;13.328;2022-08-03T09:20:32;29.90;1.00
47576;DHT22;33304;52.456;13.328;2022-08-03T09:23:05;30.20;1.00
47576;DHT22;33304;52.456;13.328;2022-08-03T09:25:35;30.70;1.00
47576;DHT22;33304;52.456;13.328;2022-08-03T09:28:07;31.00;1.00
47576;DHT22;33304;52.456;13.328;2022-08-03T09:30:35;31.50;1.00
47576;DHT22;33304;52.456;13.328;2022-08-03T09:33:04;31.70;1.00
47576;DHT22;33304;52.456;13.328;2022-08-03T09:35:31;31.70;1.00
47576;DHT22;33304;52.456;13.328;2022-08-03T09:38:11;31.70;1.00
47576;DHT22;33304;52.456;13.328;2022-08-03T09:40:38;32.20;1.00
47576;DHT22;33304;52.456;13.328;2022-08-03T09:43:06;32.30;1.00
47576;DHT22;33304;52.456;13.328;2022-08-03T09:45:34;32.00;1.00
47576;DHT22;33304;52.456;13.328;2022-08-03T09:48:24;31.20;1.00
47576;DHT22;33304;52.456;13.328;2022-08-03T09:50:53;31.00;1.00
47576;DHT22;33304;52.456;13.328;2022-08-03T09:53:22;31.00;1.00
47576;DHT22;33304;52.456;13.328;2022-08-03T09:55:54;31.20;1.00
47576;DHT22;33304;52.456;13.328;2022-08-03T09:58:22;31.10;1.00
47576;DHT22;33304;52.456;13.328;2022-08-03T10:00:55;31.20;1.00
47576;DHT22;33304;52.456;13.328;2022-08-03T10:03:24;31.30;1.00
47576;DHT22;33304;52.456;13.328;2022-08-03T10:05:51;31.50;1.00
47576;DHT22;33304;52.456;13.328;2022-08-03T10:08:19;31.70;1.00
47576;DHT22;33304;52.456;13.328;2022-08-03T10:10:49;31.70;1.00
47576;DHT22;33304;52.456;13.328;2022-08-03T10:13:20;31.90;1.00
47576;DHT22;33304;52.456;13.328;2022-08-03T10:15:47;31.80;1.00
47576;DHT22;33304;52.456;13.328;2022-08-03T10:18:14;31.50;1.00
47576;DHT22;33304;52.456;13.328;2022-08-03T10:20:45;31.40;1.00
47576;DHT22;33304;52.456;13.328;2022-08-03T10:23:16;31.60;1.00
47576;DHT22;33304;52.456;13.328;2022-08-03T10:25:46;31.80;1.00
47576;DHT22;33304;52.456;13.328;2022-08-03T10:28:17;32.10;1.00
47576;DHT22;33304;52.456;13.328;2022-08-03T10:30:48;31.90;1.00
47576;DHT22;33304;52.456;13.328;2022-08-03T10:33:18;31.90;1.00
47576;DHT22;33304;52.456;13.328;2022-08-03T10:35:48;31.80;1.00
47576;DHT22;33304;52.456;13.328;2022-08-03T10:38:20;32.00;1.00
47576;DHT22;33304;52.456;13.328;2022-08-03T10:40:49;32.20;1.00
47576;DHT22;33304;52.456;13.328;2022-08-03T10:43:30;32.30;1.00
47576;DHT22;33304;52.456;13.328;2022-08-03T10:46:00;32.40;1.00
47576;DHT22;33304;52.456;13.328;2022-08-03T10:48:29;32.10;1.00
47576;DHT22;33304;52.456;13.328;2022-08-03T10:50:57;32.10;1.00
47576;DHT22;33304;52.456;13.328;2022-08-03T10:53:35;32.20;1.00
47576;DHT22;33304;52.456;13.328;2022-08-03T10:56:03;32.40;1.00
47576;DHT22;33304;52.456;13.328;2022-08-03T10:58:50;32.50;1.00
47576;DHT22;33304;52.456;13.328;2022-08-03T11:04:17;33.00;1.00
47576;DHT22;33304;52.456;13.328;2022-08-03T11:06:45;32.90;1.00
47576;DHT22;33304;52.456;13.328;2022-08-03T11:09:14;33.10;1.00
47576;DHT22;33304;52.456;13.328;2022-08-03T11:11:43;32.70;1.00
47576;DHT22;33304;52.456;13.328;2022-08-03T11:14:14;32.70;1.00
47576;DHT22;33304;52.456;13.328;2022-08-03T11:16:42;32.80;1.00
47576;DHT22;33304;52.456;13.328;2022-08-03T11:19:12;32.90;1.00
47576;DHT22;33304;52.456;13.328;2022-08-03T11:21:52;32.80;1.00
47576;DHT22;33304;52.456;13.328;2022-08-03T11:24:57;32.80;1.00
47576;DHT22;33304;52.456;13.328;2022-08-03T11:27:28;33.00;1.00
47576;DHT22;33304;52.456;13.328;2022-08-03T11:30:00;33.50;1.00
47576;DHT22;33304;52.456;13.328;2022-08-03T11:32:58;34.00;1.00
47576;DHT22;33304;52.456;13.328;2022-08-03T11:35:28;33.90;1.00
47576;DHT22;33304;52.456;13.328;2022-08-03T11:38:06;33.80;1.00
47576;DHT22;33304;52.456;13.328;2022-08-03T11:40:36;34.10;1.00
47576;DHT22;33304;52.456;13.328;2022-08-03T11:43:04;34.20;1.00
47576;DHT22;33304;52.456;13.328;2022-08-03T11:45:33;34.30;1.00
47576;DHT22;33304;52.456;13.328;2022-08-03T11:48:11;34.60;1.00
47576;DHT22;33304;52.456;13.328;2022-08-03T11:50:39;34.80;1.00
47576;DHT22;33304;52.456;13.328;2022-08-03T11:53:15;34.90;1.00
47576;DHT22;33304;52.456;13.328;2022-08-03T11:55:43;34.80;1.00
47576;DHT22;33304;52.456;13.328;2022-08-03T11:58:17;34.60;1.00
47576;DHT22;33304;52.456;13.328;2022-08-03T12:00:46;34.50;1.00
47576;DHT22;33304;52.456;13.328;2022-08-03T12:03:14;34.50;1.00
47576;DHT22;33304;52.456;13.328;2022-08-03T12:05:45;35.20;1.00
47576;DHT22;33304;52.456;13.328;2022-08-03T12:08:15;35.70;1.00
47576;DHT22;33304;52.456;13.328;2022-08-03T12:10:47;36.00;1.00
47576;DHT22;33304;52.456;13.328;2022-08-03T12:13:16;36.70;1.00
47576;DHT22;33304;52.456;13.328;2022-08-03T12:15:51;36.90;1.00
47576;DHT22;33304;52.456;13.328;2022-08-03T12:18:19;37.40;1.00
47576;DHT22;33304;52.456;13.328;2022-08-03T12:20:48;36.70;1.00
47576;DHT22;33304;52.456;13.328;2022-08-03T12:23:17;36.00;1.00
47576;DHT22;33304;52.456;13.328;2022-08-03T12:25:45;36.30;1.00
47576;DHT22;33304;52.456;13.328;2022-08-03T12:28:16;36.20;1.00
47576;DHT22;33304;52.456;13.328;2022-08-03T12:30:45;36.30;1.00
47576;DHT22;33304;52.456;13.328;2022-08-03T12:33:20;35.50;1.00
47576;DHT22;33304;52.456;13.328;2022-08-03T12:35:49;35.70;1.00
47576;DHT22;33304;52.456;13.328;2022-08-03T12:38:21;36.10;1.00
47576;DHT22;33304;52.456;13.328;2022-08-03T12:40:58;36.50;1.00
47576;DHT22;33304;52.456;13.328;2022-08-03T12:43:26;36.90;1.00
47576;DHT22;33304;52.456;13.328;2022-08-03T12:46:10;37.10;1.00
47576;DHT22;33304;52.456;13.328;2022-08-03T12:49:03;37.50;1.00
47576;DHT22;33304;52.456;13.328;2022-08-03T12:51:32;38.40;1.00
47576;DHT22;33304;52.456;13.328;2022-08-03T12:53:59;38.00;1.00
47576;DHT22;33304;52.456;13.328;2022-08-03T12:56:27;37.60;1.00
47576;DHT22;33304;52.456;13.328;2022-08-03T12:58:54;38.30;1.00
47576;DHT22;33304;52.456;13.328;2022-08-03T13:01:22;39.20;1.00
47576;DHT22;33304;52.456;13.328;2022-08-03T13:03:51;38.50;1.00
47576;DHT22;33304;52.456;13.328;2022-08-03T13:06:22;39.10;1.00
47576;DHT22;33304;52.456;13.328;2022-08-03T13:09:00;39.60;1.00
47576;DHT22;33304;52.456;13.328;2022-08-03T13:11:27;39.70;1.00
47576;DHT22;33304;52.456;13.328;2022-08-03T13:13:54;39.50;1.00
47576;DHT22;33304;52.456;13.328;2022-08-03T13:16:22;39.50;1.00
47576;DHT22;33304;52.456;13.328;2022-08-03T13:18:50;39.30;1.00
47576;DHT22;33304;52.456;13.328;2022-08-03T13:21:20;39.70;1.00
47576;DHT22;33304;52.456;13.328;2022-08-03T13:23:48;39.40;1.00
47576;DHT22;33304;52.456;13.328;2022-08-03T13:26:15;40.20;1.00
47576;DHT22;33304;52.456;13.328;2022-08-03T13:28:42;40.10;1.00
47576;DHT22;33304;52.456;13.328;2022-08-03T13:31:09;40.70;1.00
47576;DHT22;33304;52.456;13.328;2022-08-03T13:33:37;41.20;1.00
47576;DHT22;33304;52.456;13.328;2022-08-03T13:36:06;42.20;1.00
47576;DHT22;33304;52.456;13.328;2022-08-03T13:38:34;41.90;1.00
47576;DHT22;33304;52.456;13.328;2022-08-03T13:41:01;41.50;1.00
47576;DHT22;33304;52.456;13.328;2022-08-03T13:43:29;40.10;1.00
47576;DHT22;33304;52.456;13.328;2022-08-03T13:45:56;40.20;1.00
47576;DHT22;33304;52.456;13.328;2022-08-03T13:48:23;40.10;1.00
47576;DHT22;33304;52.456;13.328;2022-08-03T13:50:52;39.30;1.00
47576;DHT22;33304;52.456;13.328;2022-08-03T13:53:19;40.10;1.00
47576;DHT22;33304;52.456;13.328;2022-08-03T13:55:47;40.00;1.00
47576;DHT22;33304;52.456;13.328;2022-08-03T13:58:15;39.70;1.00
47576;DHT22;33304;52.456;13.328;2022-08-03T14:00:42;39.00;1.00
47576;DHT22;33304;52.456;13.328;2022-08-03T14:03:09;39.50;1.00
47576;DHT22;33304;52.456;13.328;2022-08-03T14:05:36;40.50;1.00
47576;DHT22;33304;52.456;13.328;2022-08-03T14:08:05;41.10;1.00
47576;DHT22;33304;52.456;13.328;2022-08-03T14:10:34;40.90;1.00
47576;DHT22;33304;52.456;13.328;2022-08-03T14:13:03;41.30;1.00
47576;DHT22;33304;52.456;13.328;2022-08-03T14:15:30;41.20;1.00
47576;DHT22;33304;52.456;13.328;2022-08-03T14:17:58;41.90;1.00
47576;DHT22;33304;52.456;13.328;2022-08-03T14:20:25;42.40;1.00
47576;DHT22;33304;52.456;13.328;2022-08-03T14:22:53;43.10;1.00
47576;DHT22;33304;52.456;13.328;2022-08-03T14:25:21;43.20;1.00
47576;DHT22;33304;52.456;13.328;2022-08-03T14:27:48;43.30;1.00
47576;DHT22;33304;52.456;13.328;2022-08-03T14:30:17;43.70;1.00
47576;DHT22;33304;52.456;13.328;2022-08-03T14:32:44;42.20;1.00
47576;DHT22;33304;52.456;13.328;2022-08-03T14:35:12;40.70;1.00
47576;DHT22;33304;52.456;13.328;2022-08-03T14:37:39;40.40;1.00
47576;DHT22;33304;52.456;13.328;2022-08-03T14:40:07;41.10;1.00
47576;DHT22;33304;52.456;13.328;2022-08-03T14:42:34;40.50;1.00
47576;DHT22;33304;52.456;13.328;2022-08-03T14:45:01;41.40;1.00
47576;DHT22;33304;52.456;13.328;2022-08-03T14:47:30;41.80;1.00
47576;DHT22;33304;52.456;13.328;2022-08-03T14:49:58;41.20;1.00
47576;DHT22;33304;52.456;13.328;2022-08-03T14:52:25;41.80;1.00
47576;DHT22;33304;52.456;13.328;2022-08-03T14:54:52;42.00;1.00
47576;DHT22;33304;52.456;13.328;2022-08-03T14:57:19;41.80;1.00
47576;DHT22;33304;52.456;13.328;2022-08-03T14:59:46;41.60;1.00
47576;DHT22;33304;52.456;13.328;2022-08-03T15:02:14;41.80;1.00
47576;DHT22;33304;52.456;13.328;2022-08-03T15:04:42;41.50;1.00
47576;DHT22;33304;52.456;13.328;2022-08-03T15:07:09;41.10;1.00
47576;DHT22;33304;52.456;13.328;2022-08-03T15:09:37;41.00;1.00
47576;DHT22;33304;52.456;13.328;2022-08-03T15:12:05;40.40;1.00
47576;DHT22;33304;52.456;13.328;2022-08-03T15:14:32;38.50;1.00
47576;DHT22;33304;52.456;13.328;2022-08-03T15:16:59;38.40;1.00
47576;DHT22;33304;52.456;13.328;2022-08-03T15:19:26;38.20;1.00
47576;DHT22;33304;52.456;13.328;2022-08-03T15:21:55;37.90;1.00
47576;DHT22;33304;52.456;13.328;2022-08-03T15:24:22;37.60;1.00
47576;DHT22;33304;52.456;13.328;2022-08-03T15:26:49;37.30;1.00
47576;DHT22;33304;52.456;13.328;2022-08-03T15:29:16;37.30;1.00
47576;DHT22;33304;52.456;13.328;2022-08-03T15:31:44;37.40;1.00
47576;DHT22;33304;52.456;13.328;2022-08-03T15:34:11;37.30;1.00
47576;DHT22;33304;52.456;13.328;2022-08-03T15:36:38;37.70;1.00
47576;DHT22;33304;52.456;13.328;2022-08-03T15:39:06;38.40;1.00
47576;DHT22;33304;52.456;13.328;2022-08-03T15:41:34;38.40;1.00